Time;durP1;ratioP1;P1;durP2;ratioP2;P2;SDS_P1;SDS_P2;PMS_P1;PMS_P2;Temp;Humidity;BMP_temperature;BMP_pressure;BME280_temperature;BME280_humidity;BME280_pressure;Samples;Min_cycle;Max_cycle;Signal;HPM_P1;HPM_P2
2022/12/28 00:00:52;;;;;;;6.83;6.13;;;;;;;8.39;65.32;95919.44;5011618;28;20191;-67
2022/12/28 00:03:18;;;;;;;6.00;5.50;;;;;;;8.33;65.16;95927.75;5012017;28;20188;-66
2022/12/28 00:05:43;;;;;;;6.53;5.93;;;;;;;8.35;65.25;95920.59;5016698;28;20230;-66
2022/12/28 00:08:08;;;;;;;6.27;5.67;;;;;;;8.44;64.87;95926.97;5018121;28;20284;-66
2022/12/28 00:10:34;;;;;;;7.03;6.33;;;;;;;8.50;65.14;95923.88;5009060;28;20231;-66
2022/12/28 00:12:59;;;;;;;6.43;5.83;;;;;;;8.44;65.22;95922.53;5008275;28;20197;-67
2022/12/28 00:15:25;;;;;;;6.33;5.60;;;;;;;8.37;65.39;95916.09;5032874;28;20197;-66
2022/12/28 00:17:50;;;;;;;6.17;5.33;;;;;;;8.45;65.31;95926.03;5014530;28;20219;-66
2022/12/28 00:20:16;;;;;;;6.30;5.70;;;;;;;8.48;64.81;95910.91;5023505;28;20222;-66
2022/12/28 00:22:41;;;;;;;6.37;5.77;;;;;;;8.43;64.90;95922.69;5012190;28;20214;-66
2022/12/28 00:25:07;;;;;;;7.33;6.13;;;;;;;8.47;64.75;95921.47;5010998;28;20223;-66
2022/12/28 00:27:33;;;;;;;6.60;5.57;;;;;;;8.54;64.67;95930.56;5034018;28;20194;-66
2022/12/28 00:29:58;;;;;;;5.93;5.33;;;;;;;8.57;64.25;95925.91;5015864;28;20222;-66
2022/12/28 00:32:24;;;;;;;7.23;5.87;;;;;;;8.61;64.08;95931.78;5017754;28;20222;-66
2022/12/28 00:34:49;;;;;;;6.93;6.33;;;;;;;8.52;64.32;95938.53;5019267;28;20222;-66
2022/12/28 00:37:15;;;;;;;6.40;5.80;;;;;;;8.63;64.09;95940.31;5017601;28;20222;-66
2022/12/28 00:39:43;;;;;;;6.60;5.90;;;;;;;8.53;64.10;95939.38;5008524;28;20257;-67
2022/12/28 00:42:09;;;;;;;6.50;5.90;;;;;;;8.71;63.97;95945.81;5021001;28;20331;-66
2022/12/28 00:44:35;;;;;;;6.70;6.10;;;;;;;8.78;63.46;95944.41;5008128;28;20265;-66
2022/12/28 00:47:00;;;;;;;7.10;6.37;;;;;;;8.71;63.58;95951.06;5034182;28;20320;-66
2022/12/28 00:49:25;;;;;;;6.57;5.87;;;;;;;8.71;63.78;95950.22;5022089;28;20219;-66
2022/12/28 00:51:51;;;;;;;7.63;6.10;;;;;;;8.56;63.81;95955.72;5027150;28;20167;-66
2022/12/28 00:54:16;;;;;;;7.73;6.50;;;;;;;8.64;64.12;95957.75;5007108;28;20187;-66
2022/12/28 00:56:42;;;;;;;7.03;6.37;;;;;;;8.75;63.41;95957.75;5018940;28;20218;-66
2022/12/28 00:59:08;;;;;;;7.00;6.40;;;;;;;8.63;63.50;95960.47;5019135;28;20227;-66
2022/12/28 01:01:33;;;;;;;7.70;6.87;;;;;;;8.60;63.80;95964.16;5016317;28;20234;-66
2022/12/28 01:03:59;;;;;;;7.93;6.83;;;;;;;8.71;63.36;95966.78;5036642;28;20191;-66
2022/12/28 01:06:26;;;;;;;7.23;6.53;;;;;;;8.79;63.03;95956.59;5011673;28;20206;-66
2022/12/28 01:08:51;;;;;;;7.27;6.57;;;;;;;8.64;63.74;95963.00;5013663;28;20229;-66
2022/12/28 01:11:25;;;;;;;8.23;7.43;;;;;;;8.57;64.48;95961.78;5011980;28;20219;-67
2022/12/28 01:13:52;;;;;;;8.67;7.67;;;;;;;8.60;64.36;95956.28;5006469;28;20227;-67
2022/12/28 01:16:19;;;;;;;9.57;8.67;;;;;;;8.44;65.06;95951.38;5014702;28;20310;-66
2022/12/28 01:18:46;;;;;;;9.80;8.80;;;;;;;8.51;64.99;95949.97;5011002;28;20195;-67
2022/12/28 01:21:17;;;;;;;9.40;8.50;;;;;;;8.26;65.76;95950.97;5017131;28;20258;-67
2022/12/28 01:23:44;;;;;;;10.20;9.20;;;;;;;8.44;65.58;95956.63;5007852;28;20229;-67
2022/12/28 01:26:09;;;;;;;10.60;9.60;;;;;;;8.51;65.12;95951.75;5007952;28;20230;-67
2022/12/28 01:28:35;;;;;;;10.37;9.27;;;;;;;8.51;64.48;95957.84;5011302;28;20238;-67
2022/12/28 01:31:13;;;;;;;10.27;9.23;;;;;;;8.39;65.04;95949.13;5013793;28;20187;-67
2022/12/28 01:33:38;;;;;;;10.33;9.23;;;;;;;8.40;64.69;95949.97;5011788;28;20187;-67
2022/12/28 01:36:12;;;;;;;10.70;9.60;;;;;;;8.52;64.43;95945.56;4995986;28;20223;-67
2022/12/28 01:38:37;;;;;;;10.57;9.57;;;;;;;8.44;64.23;95946.13;4997744;28;20250;-67
2022/12/28 01:41:06;;;;;;;10.90;9.80;;;;;;;8.35;64.78;95947.63;5014104;28;20318;-67
2022/12/28 01:44:09;;;;;;;9.97;8.97;;;;;;;8.50;64.26;95947.44;4997090;28;20219;-67
2022/12/28 01:46:44;;;;;;;10.80;9.70;;;;;;;8.44;64.44;95950.56;5001032;28;20229;-67
2022/12/28 01:49:33;;;;;;;12.03;10.77;;;;;;;8.35;64.35;95947.63;4989185;28;20349;-67
2022/12/28 01:52:15;;;;;;;12.23;10.93;;;;;;;8.08;65.38;95947.91;5002297;28;20200;-67
2022/12/28 01:55:19;;;;;;;14.47;11.90;;;;;;;8.23;64.47;95938.06;5022653;28;20194;-67
2022/12/28 01:57:49;;;;;;;13.00;11.80;;;;;;;8.04;65.19;95943.00;4956682;28;20231;-67
2022/12/28 02:00:16;;;;;;;12.93;11.60;;;;;;;8.10;64.71;95937.31;4956196;28;20299;-66
2022/12/28 02:02:49;;;;;;;11.80;10.60;;;;;;;7.99;65.12;95940.72;4958630;28;20224;-67
2022/12/28 02:05:15;;;;;;;12.23;11.03;;;;;;;7.92;65.72;95934.28;4976482;28;20239;-67
2022/12/28 02:07:47;;;;;;;12.20;11.07;;;;;;;8.05;64.89;95942.91;4964357;28;20250;-67
2022/12/28 02:10:15;;;;;;;11.43;10.33;;;;;;;7.97;64.76;95932.16;4962198;28;20232;-67
2022/12/28 02:12:40;;;;;;;11.43;10.23;;;;;;;8.02;64.40;95923.94;4944445;29;20188;-67
2022/12/28 02:15:07;;;;;;;11.87;10.67;;;;;;;7.94;64.50;95927.16;4948583;28;20225;-67
2022/12/28 02:17:33;;;;;;;11.67;10.47;;;;;;;8.10;64.14;95927.69;4953564;28;20228;-67
2022/12/28 02:19:59;;;;;;;12.33;11.07;;;;;;;7.65;64.71;95927.50;4976541;28;20227;-67
2022/12/28 02:22:50;;;;;;;12.33;11.13;;;;;;;7.75;64.57;95927.66;4961131;28;20235;-67
2022/12/28 02:25:54;;;;;;;12.93;11.70;;;;;;;7.78;64.36;95916.13;4974371;28;20235;-67
2022/12/28 02:28:51;;;;;;;12.67;11.37;;;;;;;7.83;64.00;95914.00;4920796;29;20234;-67
2022/12/28 02:31:23;;;;;;;12.87;11.67;;;;;;;8.00;62.97;95904.91;4920805;29;20355;-67
2022/12/28 02:34:00;;;;;;;12.10;11.00;;;;;;;7.91;63.08;95903.78;4907672;29;20198;-67
2022/12/28 02:36:33;;;;;;;13.40;11.67;;;;;;;7.88;62.74;95902.22;4904653;29;20274;-67
2022/12/28 02:39:12;;;;;;;12.30;11.10;;;;;;;7.90;62.61;95902.13;4899714;29;20254;-67
2022/12/28 02:41:40;;;;;;;13.37;12.10;;;;;;;7.90;62.19;95889.88;4917390;29;20260;-67
2022/12/28 02:44:06;;;;;;;13.83;12.53;;;;;;;7.94;62.30;95900.97;4909374;29;20254;-67
2022/12/28 02:52:21;;;;;;;12.40;11.20;;;;;;;7.90;61.77;95904.75;4913230;29;20233;-67
2022/12/28 02:58:22;;;;;;;11.40;10.20;;;;;;;7.94;60.65;95900.97;4907831;29;20297;-67
2022/12/28 03:00:47;;;;;;;11.47;10.37;;;;;;;7.89;60.92;95890.00;4915645;28;20315;-67
2022/12/28 03:03:50;;;;;;;11.00;10.00;;;;;;;7.95;59.72;95887.75;4943003;28;20200;-66
2022/12/28 03:09:18;;;;;;;10.67;9.57;;;;;;;7.92;59.44;95893.22;4988597;28;20322;-67
2022/12/28 03:11:56;;;;;;;10.73;9.63;;;;;;;7.88;58.86;95894.38;5013903;28;20213;-66
2022/12/28 03:14:35;;;;;;;11.23;9.40;;;;;;;7.84;59.30;95892.94;5033253;28;20214;-66
2022/12/28 03:31:11;;;;;;;10.77;9.67;;;;;;;7.90;58.74;95907.38;5022928;28;21043;-66
2022/12/28 03:33:43;;;;;;;11.27;9.20;;;;;;;7.77;59.50;95912.66;5014914;28;20183;-67
2022/12/28 03:36:29;;;;;;;10.70;9.60;;;;;;;7.93;58.64;95915.81;5011201;28;20226;-67
2022/12/28 03:39:24;;;;;;;10.93;9.83;;;;;;;7.99;58.35;95916.31;5010673;28;20218;-67
2022/12/28 03:44:44;;;;;;;10.37;9.37;;;;;;;7.89;58.38;95913.56;5013907;28;20276;-67
2022/12/28 03:47:13;;;;;;;10.13;9.13;;;;;;;7.89;57.91;95903.91;5015705;28;20223;-67
2022/12/28 03:49:40;;;;;;;10.27;9.17;;;;;;;7.87;58.13;95903.19;5012581;28;20284;-65
2022/12/28 03:52:08;;;;;;;9.53;8.57;;;;;;;7.86;58.08;95904.16;5011856;28;20238;-65
2022/12/28 03:54:34;;;;;;;9.43;8.07;;;;;;;7.81;58.12;95906.28;5012461;28;20231;-65
2022/12/28 03:56:59;;;;;;;8.93;8.03;;;;;;;7.74;57.67;95903.25;5007607;28;20310;-65
2022/12/28 03:59:24;;;;;;;8.67;7.87;;;;;;;7.73;57.81;95906.00;5012414;28;20243;-65
2022/12/28 04:01:50;;;;;;;9.10;7.73;;;;;;;7.53;58.61;95898.75;5027829;28;20259;-65
2022/12/28 04:04:15;;;;;;;8.97;7.43;;;;;;;7.68;57.99;95895.84;5021220;28;20249;-65
2022/12/28 04:06:42;;;;;;;8.53;7.67;;;;;;;7.62;58.17;95900.72;5011540;28;20236;-67
2022/12/28 04:09:08;;;;;;;7.73;6.90;;;;;;;7.69;57.05;95891.44;5015133;28;20281;-66
2022/12/28 04:11:33;;;;;;;7.97;6.97;;;;;;;7.36;58.26;95892.97;5016679;28;20231;-66
2022/12/28 04:13:59;;;;;;;7.83;6.57;;;;;;;7.38;58.01;95893.69;5021407;28;20214;-66
2022/12/28 04:16:24;;;;;;;8.10;7.30;;;;;;;7.39;58.51;95897.16;5010231;28;20280;-66
2022/12/28 04:18:50;;;;;;;8.47;7.60;;;;;;;7.43;58.09;95894.22;5016185;28;20246;-66
2022/12/28 04:21:15;;;;;;;9.00;7.43;;;;;;;7.29;58.34;95889.13;5005172;28;20215;-66
2022/12/28 04:23:41;;;;;;;7.50;6.37;;;;;;;7.45;57.96;95889.69;5023296;28;20222;-66
2022/12/28 04:26:12;;;;;;;7.47;6.60;;;;;;;7.44;57.52;95893.25;5015771;28;20253;-66
2022/12/28 04:29:03;;;;;;;9.33;6.83;;;;;;;7.66;57.40;95912.63;4998682;28;20288;-66
2022/12/28 04:31:29;;;;;;;7.50;6.70;;;;;;;7.70;57.30;95914.91;5032065;28;20238;-66
2022/12/28 04:33:58;;;;;;;8.37;7.13;;;;;;;7.62;57.09;95922.50;5014918;28;20234;-66
2022/12/28 04:36:24;;;;;;;7.30;6.37;;;;;;;7.74;57.20;95926.00;5007383;28;20275;-65
2022/12/28 04:38:49;;;;;;;6.90;6.20;;;;;;;7.51;57.39;95932.88;5011913;28;20291;-66
2022/12/28 04:41:15;;;;;;;7.30;6.60;;;;;;;7.59;56.96;95934.94;5016272;28;20302;-66
2022/12/28 04:43:40;;;;;;;7.40;6.53;;;;;;;7.73;56.27;95938.25;5019327;28;20239;-66
2022/12/28 04:46:10;;;;;;;6.47;5.87;;;;;;;7.72;56.26;95939.22;5029542;28;20241;-65
2022/12/28 04:48:35;;;;;;;6.33;5.73;;;;;;;7.67;56.13;95930.84;5020485;28;20187;-66
2022/12/28 04:51:25;;;;;;;8.23;6.00;;;;;;;7.68;55.59;95942.16;5008289;28;20224;-66
2022/12/28 04:53:52;;;;;;;6.00;5.40;;;;;;;7.73;55.89;95946.09;5022335;28;20238;-66
2022/12/28 04:56:19;;;;;;;7.37;5.90;;;;;;;7.75;55.42;95940.75;5012549;28;20238;-66
2022/12/28 04:58:48;;;;;;;6.03;5.10;;;;;;;7.80;55.35;95940.41;5016436;28;20218;-66
2022/12/28 05:01:17;;;;;;;6.07;5.40;;;;;;;7.74;55.46;95941.69;5020204;28;20225;-66
2022/12/28 05:03:44;;;;;;;6.43;5.57;;;;;;;7.72;55.14;95938.34;5026878;28;20189;-66
2022/12/28 05:06:15;;;;;;;6.43;5.73;;;;;;;7.78;54.90;95943.16;5023295;28;20229;-65
2022/12/28 05:08:42;;;;;;;5.90;5.07;;;;;;;7.90;54.48;95933.56;5019820;28;20224;-66
2022/12/28 05:11:19;;;;;;;5.70;5.10;;;;;;;7.94;54.42;95937.63;5014211;28;20222;-66
2022/12/28 05:13:45;;;;;;;5.90;4.77;;;;;;;7.95;54.13;95929.66;5020926;28;20229;-66
2022/12/28 05:16:13;;;;;;;5.47;4.97;;;;;;;8.00;54.05;95926.69;5010741;28;20222;-66
2022/12/28 05:18:39;;;;;;;5.90;5.27;;;;;;;7.99;53.96;95929.41;5024972;28;20202;-66
2022/12/28 05:21:06;;;;;;;5.70;5.03;;;;;;;8.05;53.81;95934.22;5031372;28;20226;-66
2022/12/28 05:23:34;;;;;;;5.63;4.83;;;;;;;7.69;54.75;95939.41;5015842;28;20317;-66
2022/12/28 05:26:05;;;;;;;5.67;5.07;;;;;;;7.85;54.50;95928.66;5003979;28;20495;-66
2022/12/28 05:28:30;;;;;;;5.33;4.80;;;;;;;7.94;54.08;95932.41;4998010;28;20246;-66
2022/12/28 05:31:16;;;;;;;6.03;5.03;;;;;;;7.90;53.89;95925.69;5024592;28;20221;-66
2022/12/28 05:33:43;;;;;;;5.57;4.97;;;;;;;7.86;53.75;95938.19;5040035;28;20201;-66
2022/12/28 05:36:11;;;;;;;6.70;5.40;;;;;;;8.00;53.02;95942.41;5013675;28;20218;-66
2022/12/28 05:38:37;;;;;;;5.37;4.47;;;;;;;7.99;52.83;95950.38;5021366;28;20226;-66
2022/12/28 05:41:07;;;;;;;7.60;5.10;;;;;;;7.98;52.54;95948.72;5006797;28;20237;-66
2022/12/28 05:43:39;;;;;;;5.97;4.87;;;;;;;7.87;52.69;95952.94;5009289;28;20230;-66
2022/12/28 05:46:07;;;;;;;5.70;4.90;;;;;;;7.98;52.58;95961.81;5012403;28;20187;-66
2022/12/28 05:48:34;;;;;;;5.13;4.67;;;;;;;7.95;52.26;95958.47;5005976;28;20187;-66
2022/12/28 05:51:14;;;;;;;5.40;4.30;;;;;;;7.92;51.84;95963.09;5003392;28;20215;-66
2022/12/28 05:53:41;;;;;;;6.20;5.03;;;;;;;7.99;51.57;95964.28;5021337;28;20252;-66
2022/12/28 05:56:15;;;;;;;5.20;4.47;;;;;;;8.04;51.35;95966.59;5025941;28;20223;-66
2022/12/28 05:58:42;;;;;;;5.77;5.17;;;;;;;8.02;51.11;95963.22;5011293;28;20212;-66
2022/12/28 06:01:16;;;;;;;4.97;4.47;;;;;;;8.02;51.19;95973.72;4996211;28;20235;-66
2022/12/28 06:03:44;;;;;;;7.27;5.17;;;;;;;7.91;51.44;95966.63;5012330;28;20195;-66
2022/12/28 06:06:12;;;;;;;6.00;4.67;;;;;;;7.84;51.69;95968.06;5007594;28;20225;-66
2022/12/28 06:08:39;;;;;;;5.00;4.50;;;;;;;7.64;52.28;95972.94;5019698;28;20254;-66
2022/12/28 06:11:11;;;;;;;5.00;4.50;;;;;;;7.63;52.34;95971.28;5015513;28;20232;-66
2022/12/28 06:13:37;;;;;;;6.07;5.37;;;;;;;7.70;52.29;95975.13;5007144;28;20330;-66
2022/12/28 06:16:09;;;;;;;6.20;5.37;;;;;;;7.51;52.78;95980.84;5010852;28;20212;-66
2022/12/28 06:18:35;;;;;;;7.50;5.30;;;;;;;7.48;52.74;95973.22;5011396;28;20184;-66
2022/12/28 06:21:06;;;;;;;7.80;5.10;;;;;;;7.41;53.02;95979.81;5010457;28;20253;-66
2022/12/28 06:23:32;;;;;;;6.73;5.53;;;;;;;7.38;52.87;95977.44;5009436;28;20313;-66
2022/12/28 06:26:04;;;;;;;7.70;5.10;;;;;;;7.45;53.04;95978.66;5004321;28;20282;-65
2022/12/28 06:28:30;;;;;;;6.67;5.97;;;;;;;7.44;53.53;95968.31;5015381;28;20219;-65
2022/12/28 06:31:05;;;;;;;6.60;5.67;;;;;;;7.67;52.77;95983.22;5016729;28;20196;-65
2022/12/28 06:33:31;;;;;;;6.00;5.03;;;;;;;7.63;52.80;95975.69;5009434;28;20191;-65
2022/12/28 06:35:57;;;;;;;6.33;4.90;;;;;;;7.71;52.96;95981.19;5012915;28;20226;-65
2022/12/28 06:38:23;;;;;;;6.60;5.13;;;;;;;7.70;52.63;95972.50;5023775;28;20219;-66
2022/12/28 06:40:48;;;;;;;7.30;5.57;;;;;;;7.73;52.45;95977.53;5001086;28;20223;-66
2022/12/28 06:43:13;;;;;;;6.13;5.03;;;;;;;7.25;54.33;95982.69;4986716;28;20238;-66
2022/12/28 06:45:39;;;;;;;6.97;5.53;;;;;;;7.33;53.91;95984.75;5002330;28;20654;-66
2022/12/28 06:48:05;;;;;;;7.33;5.50;;;;;;;7.60;53.92;95992.44;5000434;28;20219;-66
2022/12/28 06:50:30;;;;;;;6.90;5.70;;;;;;;7.49;54.03;95995.81;5009614;28;20228;-66
2022/12/28 06:52:55;;;;;;;5.50;4.90;;;;;;;7.61;53.89;96003.72;5008088;28;20231;-65
2022/12/28 06:55:21;;;;;;;7.03;6.00;;;;;;;7.52;54.10;95989.53;5010686;28;20290;-66
2022/12/28 06:57:46;;;;;;;7.43;6.07;;;;;;;7.55;54.00;95988.47;5024253;28;20195;-66
2022/12/28 07:00:12;;;;;;;7.03;6.33;;;;;;;7.71;53.92;95996.91;5009796;28;20274;-66
2022/12/28 07:02:37;;;;;;;7.80;5.90;;;;;;;7.65;54.04;95999.97;5018316;28;20285;-66
2022/12/28 07:05:03;;;;;;;6.23;5.63;;;;;;;7.65;54.16;96005.19;5015836;28;20241;-66
2022/12/28 07:07:28;;;;;;;6.27;5.60;;;;;;;7.70;53.96;95987.38;5011764;28;20226;-66
2022/12/28 07:09:54;;;;;;;6.60;5.70;;;;;;;7.67;54.21;95987.59;5013792;28;20282;-66
2022/12/28 07:12:19;;;;;;;6.97;6.27;;;;;;;7.76;54.18;95984.31;5016049;28;20171;-66
2022/12/28 07:14:45;;;;;;;7.70;6.10;;;;;;;7.84;53.88;95978.53;5013528;28;20222;-66
2022/12/28 07:17:10;;;;;;;8.17;6.07;;;;;;;7.92;53.80;95987.50;5029104;28;20222;-66
2022/12/28 07:19:36;;;;;;;7.77;6.23;;;;;;;7.93;53.85;95997.00;5012754;28;20253;-66
2022/12/28 07:22:02;;;;;;;6.83;6.03;;;;;;;7.94;53.80;95990.84;5029568;28;20207;-66
2022/12/28 07:24:28;;;;;;;6.50;5.80;;;;;;;8.05;53.57;95989.22;5007416;28;20199;-66
2022/12/28 07:26:53;;;;;;;8.40;6.23;;;;;;;8.12;53.37;95996.50;5019321;28;20226;-66
2022/12/28 07:29:19;;;;;;;8.10;6.13;;;;;;;8.14;53.46;95996.41;5006473;28;20302;-66
2022/12/28 07:31:44;;;;;;;7.07;6.30;;;;;;;8.24;53.07;95991.31;4995036;28;20223;-66
2022/12/28 07:34:10;;;;;;;7.10;6.13;;;;;;;8.26;53.21;95995.50;5009737;28;20265;-66
2022/12/28 07:36:35;;;;;;;7.73;6.93;;;;;;;8.15;53.73;95992.81;5023701;28;20187;-66
2022/12/28 07:39:01;;;;;;;8.03;6.53;;;;;;;8.17;53.69;95998.78;5021334;28;20272;-66
2022/12/28 07:41:31;;;;;;;6.73;6.03;;;;;;;8.32;53.36;96004.69;5019577;28;20234;-67
2022/12/28 07:43:57;;;;;;;7.80;6.90;;;;;;;8.45;52.98;96005.50;5006161;28;20372;-66
2022/12/28 07:46:26;;;;;;;8.83;6.93;;;;;;;8.52;53.01;96011.91;5018106;28;20227;-66
2022/12/28 07:48:52;;;;;;;8.20;7.40;;;;;;;8.43;53.28;96011.78;5019330;28;20274;-67
2022/12/28 07:51:27;;;;;;;9.70;8.33;;;;;;;8.17;54.51;96010.09;5009259;28;20258;-67
2022/12/28 07:53:54;;;;;;;9.33;8.33;;;;;;;8.36;54.10;96014.81;5004116;28;20245;-67
2022/12/28 07:56:21;;;;;;;9.73;8.10;;;;;;;8.36;53.86;96004.34;5008887;28;20227;-67
2022/12/28 07:58:49;;;;;;;9.90;8.50;;;;;;;8.45;53.90;96012.53;5021396;28;20265;-67
2022/12/28 08:01:16;;;;;;;8.80;7.90;;;;;;;8.49;53.71;96014.78;5013649;28;20223;-67
2022/12/28 08:03:42;;;;;;;10.57;8.37;;;;;;;8.44;53.72;96011.66;5017904;28;20199;-68
2022/12/28 08:06:18;;;;;;;11.47;8.23;;;;;;;8.45;54.20;96012.53;5000513;28;20231;-67
2022/12/28 08:08:45;;;;;;;17.43;8.63;;;;;;;8.40;54.28;96012.84;5015130;28;20229;-67
2022/12/28 08:11:16;;;;;;;10.57;8.53;;;;;;;8.16;54.60;96012.84;5023754;28;20226;-67
2022/12/28 08:13:43;;;;;;;10.37;9.20;;;;;;;8.24;54.72;96007.88;5021064;28;20267;-65
2022/12/28 08:16:11;;;;;;;8.67;7.80;;;;;;;8.30;54.69;96006.59;5007683;28;20218;-67
2022/12/28 08:18:38;;;;;;;10.23;8.43;;;;;;;8.37;54.55;96006.03;5018468;28;20179;-67
2022/12/28 08:21:11;;;;;;;10.37;9.13;;;;;;;8.27;54.04;95999.78;5009580;28;20227;-67
2022/12/28 08:23:37;;;;;;;10.23;8.40;;;;;;;8.41;54.47;96005.81;5009815;28;20233;-67
2022/12/28 08:26:08;;;;;;;10.10;8.43;;;;;;;8.43;54.13;96001.31;5016564;28;20598;-67
2022/12/28 08:28:35;;;;;;;12.03;8.77;;;;;;;8.02;54.67;96016.47;5009445;28;20219;-67
2022/12/28 08:31:10;;;;;;;11.40;8.30;;;;;;;7.85;55.56;96022.09;5022720;28;20209;-67
2022/12/28 08:33:36;;;;;;;9.63;8.27;;;;;;;8.12;54.95;96014.84;5014468;28;20182;-66
2022/12/28 08:36:02;;;;;;;12.77;9.00;;;;;;;8.28;54.40;96014.53;5025597;28;20222;-66
2022/12/28 08:38:28;;;;;;;12.17;8.43;;;;;;;8.38;54.13;96014.72;5014235;28;20219;-66
2022/12/28 08:40:57;;;;;;;11.43;9.07;;;;;;;8.25;53.92;96016.56;5028882;28;20222;-66
2022/12/28 08:43:23;;;;;;;12.03;8.57;;;;;;;8.28;54.25;96021.56;5019618;28;20281;-66
2022/12/28 08:46:16;;;;;;;11.73;9.10;;;;;;;8.43;53.64;96019.66;5016871;28;20185;-66
2022/12/28 08:48:41;;;;;;;8.97;8.00;;;;;;;8.41;53.05;96018.94;5016194;28;20223;-66
2022/12/28 08:51:08;;;;;;;11.87;8.70;;;;;;;8.47;52.70;96014.06;5012333;28;20288;-66
2022/12/28 08:53:35;;;;;;;10.33;8.97;;;;;;;8.47;52.73;96016.66;5027314;28;20317;-66
2022/12/28 08:56:11;;;;;;;13.87;9.90;;;;;;;8.33;53.02;96012.44;5011643;28;20245;-66
2022/12/28 08:58:39;;;;;;;11.80;9.33;;;;;;;8.42;52.56;96010.09;5014803;28;20227;-66
2022/12/28 09:01:12;;;;;;;11.50;9.83;;;;;;;8.37;52.04;96003.41;5017605;28;20203;-66
2022/12/28 09:03:39;;;;;;;13.40;10.33;;;;;;;8.48;52.22;96012.28;5008963;28;20238;-66
2022/12/28 09:06:08;;;;;;;12.23;10.03;;;;;;;8.50;52.36;95998.13;5010729;28;20231;-66
2022/12/28 09:08:34;;;;;;;15.20;11.53;;;;;;;8.40;53.37;95994.50;5008837;28;20231;-66
2022/12/28 09:11:04;;;;;;;13.37;11.30;;;;;;;8.50;53.52;95990.25;5023192;28;20222;-67
2022/12/28 09:13:32;;;;;;;12.90;11.27;;;;;;;8.54;53.49;95990.84;5026000;28;20278;-67
2022/12/28 09:16:02;;;;;;;12.63;10.07;;;;;;;8.38;54.23;95989.34;5013375;28;20198;-66
2022/12/28 09:18:28;;;;;;;11.50;10.00;;;;;;;8.54;54.14;95978.56;5004642;28;20194;-66
2022/12/28 09:20:54;;;;;;;11.20;9.77;;;;;;;8.48;53.45;95972.97;5013956;28;20227;-66
2022/12/28 09:23:20;;;;;;;9.53;8.00;;;;;;;8.49;54.62;95974.63;5010260;28;20227;-67
2022/12/28 09:25:46;;;;;;;9.73;8.17;;;;;;;8.63;53.18;95971.78;5016041;28;20225;-67
2022/12/28 09:28:11;;;;;;;9.17;7.70;;;;;;;8.12;54.45;95974.72;5013391;28;20225;-66
2022/12/28 09:30:37;;;;;;;7.20;6.50;;;;;;;7.95;54.92;95976.78;5024433;28;20197;-67
2022/12/28 09:35:46;;;;;;;9.17;7.07;;;;;;;8.08;54.47;95971.50;5018517;28;20313;-66
2022/12/28 09:38:12;;;;;;;9.30;7.03;;;;;;;8.34;53.32;95961.72;5020996;28;20318;-66
2022/12/28 09:40:38;;;;;;;9.37;6.47;;;;;;;8.13;53.84;95972.00;5008512;28;20222;-66
2022/12/28 09:43:04;;;;;;;7.27;6.10;;;;;;;8.41;53.85;95963.88;5001100;28;20253;-66
2022/12/28 09:45:31;;;;;;;8.30;6.60;;;;;;;8.61;53.46;95961.44;5012512;28;20182;-67
2022/12/28 09:48:07;;;;;;;10.97;7.20;;;;;;;8.71;53.22;95960.72;5007450;28;20246;-67
2022/12/28 09:50:34;;;;;;;8.90;7.10;;;;;;;8.82;53.18;95953.72;5021898;28;20230;-67
2022/12/28 09:53:25;;;;;;;7.10;6.40;;;;;;;8.60;52.04;95954.50;5006858;28;20302;-68
2022/12/28 09:55:57;;;;;;;6.63;5.93;;;;;;;8.53;52.48;95949.88;5011197;28;20222;-68
2022/12/28 09:58:22;;;;;;;7.43;6.20;;;;;;;8.60;52.08;95940.56;5002940;28;20226;-68
2022/12/28 10:00:52;;;;;;;7.27;6.03;;;;;;;8.70;52.05;95943.34;5009170;28;20191;-68
2022/12/28 10:03:30;;;;;;;7.10;6.40;;;;;;;8.77;51.47;95934.06;5015227;28;20222;-68
2022/12/28 10:05:57;;;;;;;9.00;6.27;;;;;;;8.77;51.82;95936.69;5009592;28;20238;-67
2022/12/28 10:08:24;;;;;;;7.03;6.33;;;;;;;8.82;50.87;95930.13;5007991;28;20219;-67
2022/12/28 10:10:52;;;;;;;8.93;6.53;;;;;;;8.90;50.71;95932.16;5005489;28;20287;-68
2022/12/28 10:13:24;;;;;;;7.67;6.70;;;;;;;8.91;50.82;95925.94;5015119;28;20221;-68
2022/12/28 10:15:51;;;;;;;8.93;7.30;;;;;;;9.00;50.80;95925.22;5009491;28;20183;-68
2022/12/28 10:18:27;;;;;;;9.10;7.17;;;;;;;9.08;50.95;95914.13;5009924;28;20194;-67
2022/12/28 10:20:53;;;;;;;7.90;7.03;;;;;;;9.02;50.97;95919.84;5008126;28;20234;-67
2022/12/28 10:23:24;;;;;;;7.57;6.77;;;;;;;9.19;50.75;95921.16;5009813;28;20223;-67
2022/12/28 10:25:53;;;;;;;7.90;7.10;;;;;;;9.09;50.78;95918.44;5024683;28;20230;-67
2022/12/28 10:28:21;;;;;;;8.97;7.20;;;;;;;9.02;51.07;95922.47;5020800;28;20300;-66
2022/12/28 10:31:02;;;;;;;10.53;7.20;;;;;;;8.95;51.27;95918.66;5004330;28;20214;-67
2022/12/28 10:33:27;;;;;;;10.07;7.70;;;;;;;9.14;50.74;95923.28;5022796;28;20195;-67
2022/12/28 10:35:54;;;;;;;11.73;6.97;;;;;;;9.11;50.30;95915.66;5015315;28;20235;-67
2022/12/28 10:38:22;;;;;;;8.10;7.30;;;;;;;9.24;49.92;95917.19;5001189;28;20225;-67
2022/12/28 10:41:15;;;;;;;9.33;7.47;;;;;;;9.21;49.59;95914.81;5020741;28;20226;-67
2022/12/28 10:43:47;;;;;;;9.17;7.60;;;;;;;9.39;49.55;95915.16;4991947;28;20709;-67
2022/12/28 10:46:20;;;;;;;8.90;7.70;;;;;;;9.44;49.36;95918.25;5024381;28;20222;-67
2022/12/28 10:48:57;;;;;;;9.57;7.67;;;;;;;9.53;49.20;95914.06;5013050;28;20283;-66
2022/12/28 10:51:28;;;;;;;9.77;8.33;;;;;;;9.64;49.08;95911.38;5026554;28;20178;-69
2022/12/28 10:53:55;;;;;;;8.47;7.50;;;;;;;9.62;48.80;95908.06;5014527;28;20238;-68
2022/12/28 10:56:28;;;;;;;8.30;7.50;;;;;;;9.61;49.03;95911.63;5017285;28;20312;-67
2022/12/28 10:59:24;;;;;;;10.33;7.83;;;;;;;9.71;48.37;95906.50;5012870;28;20306;-67
2022/12/28 11:01:50;;;;;;;11.10;8.50;;;;;;;9.81;48.25;95914.44;5019604;28;20282;-68
2022/12/28 11:04:21;;;;;;;8.90;7.60;;;;;;;9.94;48.23;95915.09;5018122;28;20254;-69
2022/12/28 11:06:58;;;;;;;11.20;8.30;;;;;;;9.92;48.27;95912.63;5031264;28;20531;-68
2022/12/28 11:09:36;;;;;;;8.87;7.90;;;;;;;9.76;48.56;95914.84;5018657;28;20190;-68
2022/12/28 11:12:24;;;;;;;9.77;7.87;;;;;;;9.75;48.57;95907.06;5001989;28;20250;-68
2022/12/28 11:14:55;;;;;;;9.33;8.00;;;;;;;10.02;47.62;95910.03;5024407;28;20226;-68
2022/12/28 11:17:23;;;;;;;9.03;7.87;;;;;;;9.61;48.52;95916.06;5038768;28;20349;-65
2022/12/28 11:19:53;;;;;;;8.47;7.57;;;;;;;9.21;49.57;95916.63;5014861;28;20223;-66
2022/12/28 11:22:28;;;;;;;10.53;8.33;;;;;;;9.19;49.80;95913.28;5003374;28;20234;-66
2022/12/28 11:24:55;;;;;;;9.53;7.80;;;;;;;9.17;49.75;95918.66;5003603;28;20330;-66
2022/12/28 11:27:22;;;;;;;10.53;8.77;;;;;;;9.19;49.50;95924.59;4992805;28;20194;-66
2022/12/28 11:29:50;;;;;;;9.83;7.57;;;;;;;9.16;49.84;95921.41;5011474;28;20233;-67
2022/12/28 11:32:31;;;;;;;9.30;8.00;;;;;;;9.29;49.33;95922.09;5031579;28;20226;-66
2022/12/28 11:34:57;;;;;;;10.13;8.50;;;;;;;9.37;48.99;95922.31;5005132;28;20228;-67
2022/12/28 11:37:23;;;;;;;11.47;8.50;;;;;;;9.38;49.35;95925.78;5003300;28;20298;-67
2022/12/28 11:39:50;;;;;;;9.83;8.83;;;;;;;9.39;49.55;95924.84;5001523;28;20206;-67
2022/12/28 11:42:36;;;;;;;11.00;9.20;;;;;;;9.34;49.36;95926.97;4985356;28;20304;-67
2022/12/28 11:45:15;;;;;;;10.47;8.80;;;;;;;9.44;49.20;95925.31;5001681;28;20227;-67
2022/12/28 11:47:41;;;;;;;12.17;9.20;;;;;;;9.43;49.44;95913.13;4969654;28;20373;-67
2022/12/28 11:50:35;;;;;;;13.07;8.60;;;;;;;9.51;49.30;95923.84;4996810;28;20318;-67
2022/12/28 11:53:02;;;;;;;14.47;10.50;;;;;;;9.49;49.75;95915.28;4989114;28;20258;-67
2022/12/28 11:55:42;;;;;;;15.37;10.63;;;;;;;9.54;49.79;95917.50;4985250;28;20223;-67
2022/12/28 11:58:29;;;;;;;13.90;10.70;;;;;;;9.52;49.84;95915.03;4978105;28;20230;-67
2022/12/28 12:00:55;;;;;;;13.70;10.80;;;;;;;9.46;50.33;95910.25;4979230;28;20215;-67
2022/12/28 12:03:56;;;;;;;15.37;12.57;;;;;;;9.44;50.52;95901.69;4992738;28;20282;-67
2022/12/28 12:06:40;;;;;;;16.70;13.50;;;;;;;9.27;51.18;95901.25;4986878;28;20295;-67
2022/12/28 12:09:37;;;;;;;17.87;14.40;;;;;;;9.31;51.91;95898.38;4991403;28;20219;-67
2022/12/28 12:12:14;;;;;;;19.13;13.83;;;;;;;9.26;52.57;95894.31;4937743;29;20256;-67
2022/12/28 12:14:59;;;;;;;18.50;14.47;;;;;;;9.15;53.11;95889.06;4938020;29;20228;-67
2022/12/28 12:17:37;;;;;;;18.17;15.47;;;;;;;9.18;52.62;95880.13;4919250;29;20283;-67
2022/12/28 12:20:14;;;;;;;20.50;14.53;;;;;;;9.21;52.83;95875.47;4939969;29;20225;-67
2022/12/28 12:22:52;;;;;;;15.70;13.70;;;;;;;9.16;53.56;95872.38;4932095;29;20232;-67